createdAt,value
2018-03-11T00:00:00.049Z,25.00
2018-03-11T00:02:27.658Z,24.53
2018-03-11T00:04:55.294Z,24.77
2018-03-11T00:07:22.952Z,26.20
2018-03-11T00:09:51.335Z,25.50
2018-03-11T00:12:18.967Z,26.27
2018-03-11T00:14:46.611Z,24.33
2018-03-11T00:17:14.300Z,24.17
2018-03-11T00:19:42.707Z,26.03
2018-03-11T00:22:11.155Z,23.97
2018-03-11T00:24:38.800Z,24.23
2018-03-11T00:27:07.257Z,25.63
2018-03-11T00:29:34.883Z,25.13
2018-03-11T00:32:03.303Z,24.67
2018-03-11T00:34:31.704Z,23.83
2018-03-11T00:36:59.370Z,23.50
2018-03-11T00:39:27.020Z,22.33
2018-03-11T00:41:55.430Z,21.17
2018-03-11T00:44:23.098Z,21.90
2018-03-11T00:46:50.720Z,21.33
2018-03-11T00:49:18.378Z,20.53
2018-03-11T00:51:46.019Z,19.87
2018-03-11T00:54:13.648Z,20.30
2018-03-11T00:56:41.294Z,21.27
2018-03-11T00:59:09.729Z,20.73
2018-03-11T01:01:37.404Z,21.30
2018-03-11T01:04:05.816Z,21.33
2018-03-11T01:06:33.463Z,22.40
2018-03-11T01:09:01.092Z,20.63
2018-03-11T01:11:28.761Z,21.27
2018-03-11T01:13:56.367Z,19.83
2018-03-11T01:16:24.029Z,17.80
2018-03-11T01:18:54.919Z,18.53
2018-03-11T01:21:22.668Z,20.87
2018-03-11T01:23:50.337Z,20.00
2018-03-11T01:26:17.988Z,20.37
2018-03-11T01:28:45.651Z,21.67
2018-03-11T01:31:13.285Z,22.20
2018-03-11T01:33:41.725Z,22.93
2018-03-11T01:36:09.344Z,20.37
2018-03-11T01:38:37.010Z,19.50
2018-03-11T01:41:04.674Z,19.40
2018-03-11T01:43:32.331Z,18.53
2018-03-11T01:46:00.719Z,18.83
2018-03-11T01:48:28.366Z,18.37
2018-03-11T01:50:56.036Z,19.10
2018-03-11T01:53:23.651Z,16.17
2018-03-11T01:55:51.320Z,16.77
2018-03-11T01:58:18.951Z,16.77
2018-03-11T02:00:46.624Z,15.37
2018-03-11T02:03:14.271Z,15.30
2018-03-11T02:05:41.923Z,14.90
2018-03-11T02:08:10.346Z,14.40
2018-03-11T02:10:38.002Z,22.40
2018-03-11T02:13:05.662Z,15.73
2018-03-11T02:15:33.321Z,16.10
2018-03-11T02:18:01.024Z,13.43
2018-03-11T02:20:28.740Z,13.37
2018-03-11T02:22:56.362Z,13.37
2018-03-11T02:25:23.997Z,12.83
2018-03-11T02:27:51.624Z,14.53
2018-03-11T02:30:20.057Z,13.93
2018-03-11T02:32:47.699Z,15.83
2018-03-11T02:35:16.134Z,14.80
2018-03-11T02:37:43.776Z,15.13
2018-03-11T02:40:11.420Z,14.77
2018-03-11T02:42:39.101Z,14.90
2018-03-11T02:45:06.766Z,14.90
2018-03-11T02:47:35.219Z,14.80
2018-03-11T02:50:02.887Z,14.30
2018-03-11T02:52:30.543Z,13.47
2018-03-11T02:54:58.968Z,13.13
2018-03-11T02:57:26.603Z,15.30
2018-03-11T02:59:54.279Z,15.97
2018-03-11T03:02:21.911Z,16.57
2018-03-11T03:04:50.348Z,15.03
2018-03-11T03:07:18.009Z,16.10
2018-03-11T03:09:46.456Z,16.63
2018-03-11T03:12:14.084Z,20.00
2018-03-11T03:14:42.520Z,21.33
2018-03-11T03:17:10.223Z,21.90
2018-03-11T03:19:37.842Z,22.53
2018-03-11T03:22:05.542Z,25.33
2018-03-11T03:24:33.163Z,23.87
2018-03-11T03:27:00.845Z,25.60
2018-03-11T03:29:29.215Z,25.70
2018-03-11T03:31:56.868Z,25.37
2018-03-11T03:34:24.492Z,25.50
2018-03-11T03:36:52.166Z,25.80
2018-03-11T03:39:19.816Z,26.63
2018-03-11T03:41:47.483Z,26.63
2018-03-11T03:44:15.919Z,22.50
2018-03-11T03:46:43.563Z,26.30
2018-03-11T03:49:11.195Z,27.83
2018-03-11T03:51:38.837Z,28.13
2018-03-11T03:54:07.253Z,28.70
2018-03-11T03:56:35.664Z,31.10
2018-03-11T03:59:03.308Z,31.07
2018-03-11T04:01:30.968Z,31.67
2018-03-11T04:03:58.612Z,32.43
2018-03-11T04:06:27.055Z,33.00
2018-03-11T04:08:54.681Z,32.67
2018-03-11T04:11:22.327Z,33.00
2018-03-11T04:13:49.979Z,33.37
2018-03-11T04:16:18.411Z,33.93
2018-03-11T04:18:46.043Z,33.37
2018-03-11T04:21:13.683Z,31.67
2018-03-11T04:23:41.347Z,33.60
2018-03-11T04:26:09.714Z,33.07
2018-03-11T04:28:37.356Z,31.93
2018-03-11T04:31:05.013Z,32.93
2018-03-11T04:33:33.431Z,33.63
2018-03-11T04:36:01.038Z,33.20
2018-03-11T04:38:28.748Z,34.87
2018-03-11T04:40:56.411Z,33.60
2018-03-11T04:43:24.079Z,33.73
2018-03-11T04:45:51.719Z,33.10
2018-03-11T04:48:19.351Z,33.73
2018-03-11T04:50:47.051Z,34.40
2018-03-11T04:53:14.681Z,33.73
2018-03-11T04:55:42.335Z,34.33
2018-03-11T04:58:10.024Z,33.63
2018-03-11T05:00:37.675Z,34.93
2018-03-11T05:03:06.114Z,36.60
2018-03-11T05:05:33.742Z,36.40
2018-03-11T05:08:01.383Z,37.50
2018-03-11T05:10:29.067Z,36.60
2018-03-11T05:12:56.704Z,35.93
2018-03-11T05:15:24.367Z,38.40
2018-03-11T05:17:52.774Z,36.10
2018-03-11T05:20:20.423Z,36.50
2018-03-11T05:22:48.076Z,35.50
2018-03-11T05:25:15.740Z,37.37
2018-03-11T05:27:43.517Z,37.13
2018-03-11T05:30:11.160Z,36.40
2018-03-11T05:32:38.799Z,36.43
2018-03-11T05:35:06.422Z,38.97
2018-03-11T05:37:34.135Z,38.93
2018-03-11T05:40:01.797Z,37.00
2018-03-11T05:42:29.452Z,39.40
2018-03-11T05:44:57.776Z,38.03
2018-03-11T05:47:25.435Z,39.20
2018-03-11T05:49:54.059Z,40.17
2018-03-11T05:52:21.716Z,41.90
2018-03-11T05:54:50.201Z,41.40
2018-03-11T05:57:17.889Z,41.17
2018-03-11T05:59:45.555Z,40.37
2018-03-11T06:02:13.180Z,40.83
2018-03-11T06:04:40.819Z,39.87
2018-03-11T06:07:08.528Z,41.63
2018-03-11T06:09:36.996Z,40.90
2018-03-11T06:12:04.626Z,39.43
2018-03-11T06:14:32.299Z,40.17
2018-03-11T06:16:59.964Z,40.83
2018-03-11T06:19:27.619Z,40.07
2018-03-11T06:21:56.071Z,40.20
2018-03-11T06:24:24.031Z,39.43
2018-03-11T06:26:52.489Z,40.37
2018-03-11T06:29:20.125Z,40.00
2018-03-11T06:31:47.807Z,39.30
2018-03-11T06:34:16.739Z,38.57
2018-03-11T06:36:44.415Z,39.07
2018-03-11T06:39:12.064Z,39.07
2018-03-11T06:41:39.743Z,38.37
2018-03-11T06:44:07.417Z,38.47
2018-03-11T06:46:35.111Z,39.77
2018-03-11T06:49:02.775Z,39.23
2018-03-11T06:51:30.431Z,40.67
2018-03-11T06:53:58.872Z,41.80
2018-03-11T06:56:27.331Z,39.57
2018-03-11T06:58:55.760Z,42.37
2018-03-11T07:01:23.404Z,41.80
2018-03-11T07:03:51.088Z,42.03
2018-03-11T07:06:18.751Z,42.83
2018-03-11T07:08:46.399Z,43.13
2018-03-11T07:11:14.072Z,43.37
2018-03-11T07:13:42.479Z,44.00
2018-03-11T07:16:10.928Z,42.93
2018-03-11T07:18:38.564Z,45.73
2018-03-11T07:21:07.004Z,44.83
2018-03-11T07:23:34.684Z,44.67
2018-03-11T07:26:02.325Z,43.40
2018-03-11T07:28:29.991Z,42.10
2018-03-11T07:30:57.627Z,39.40
2018-03-11T07:33:26.052Z,36.47
2018-03-11T07:35:53.694Z,31.40
2018-03-11T07:38:21.381Z,30.03
2018-03-11T07:40:49.840Z,27.73
2018-03-11T07:43:17.759Z,28.30
2018-03-11T07:45:45.434Z,26.20
2018-03-11T07:48:13.086Z,24.47
2018-03-11T07:50:41.512Z,21.07
2018-03-11T07:53:09.155Z,19.67
2018-03-11T07:55:36.811Z,20.47
2018-03-11T07:58:06.278Z,19.93
2018-03-11T08:00:34.697Z,19.70
2018-03-11T08:03:02.367Z,19.77
2018-03-11T08:05:30.793Z,20.40
2018-03-11T08:07:58.482Z,19.50
2018-03-11T08:10:26.099Z,18.30
2018-03-11T08:12:54.495Z,17.20
2018-03-11T08:15:22.153Z,16.10
2018-03-11T08:17:49.833Z,16.27
2018-03-11T08:20:18.328Z,15.50
2018-03-11T08:23:03.160Z,14.60
2018-03-11T08:25:30.835Z,13.63
2018-03-11T08:27:59.227Z,15.30
2018-03-11T08:30:26.894Z,14.60
2018-03-11T08:32:54.590Z,12.83
2018-03-11T08:50:00.616Z,10.90
2018-03-11T08:52:28.327Z,10.20
2018-03-11T08:54:55.965Z,9.37
2018-03-11T08:57:23.627Z,9.07
2018-03-11T08:59:52.043Z,9.20
2018-03-11T09:02:20.475Z,9.17
2018-03-11T09:04:48.121Z,8.47
2018-03-11T09:07:15.752Z,8.80
2018-03-11T09:09:43.420Z,8.27
2018-03-11T09:12:11.822Z,8.57
2018-03-11T09:14:40.264Z,8.93
2018-03-11T09:17:07.925Z,7.73
2018-03-11T09:19:35.806Z,7.97
2018-03-11T09:22:04.274Z,7.30
2018-03-11T09:24:31.924Z,7.47
2018-03-11T09:26:59.571Z,7.60
2018-03-11T09:29:28.094Z,7.00
2018-03-11T09:31:55.759Z,7.07
2018-03-11T09:34:23.415Z,6.83
2018-03-11T09:36:51.087Z,7.00
2018-03-11T09:39:18.748Z,6.67
2018-03-11T09:41:47.138Z,6.37
2018-03-11T09:44:14.819Z,6.53
2018-03-11T09:46:43.220Z,6.33
2018-03-11T09:49:10.903Z,6.17
2018-03-11T09:51:38.528Z,5.97
2018-03-11T09:54:06.216Z,5.87
2018-03-11T09:56:33.844Z,5.30
2018-03-11T09:59:01.511Z,5.67
2018-03-11T10:01:29.943Z,5.70
2018-03-11T10:03:57.596Z,5.50
2018-03-11T10:06:26.007Z,5.00
2018-03-11T10:08:54.399Z,5.77
2018-03-11T10:11:22.819Z,4.87
2018-03-11T10:13:51.227Z,5.10
2018-03-11T10:16:18.872Z,4.77
2018-03-11T10:18:46.557Z,4.37
2018-03-11T10:21:14.934Z,4.83
2018-03-11T10:23:42.624Z,4.23
2018-03-11T10:26:10.300Z,5.17
2018-03-11T10:28:38.007Z,4.70
2018-03-11T10:31:05.639Z,4.10
2018-03-11T10:33:33.615Z,4.50
2018-03-11T10:36:01.290Z,3.93
2018-03-11T10:38:28.945Z,4.20
2018-03-11T10:40:56.594Z,3.60
2018-03-11T10:43:24.241Z,3.80
2018-03-11T10:45:51.887Z,3.37
2018-03-11T10:48:20.308Z,3.87
2018-03-11T10:50:48.014Z,3.30
2018-03-11T10:53:15.643Z,3.40
2018-03-11T10:55:43.270Z,3.60
2018-03-11T10:58:11.108Z,3.67
2018-03-11T11:00:43.442Z,3.30
2018-03-11T11:03:16.799Z,3.17
2018-03-11T11:05:44.451Z,2.90
2018-03-11T11:08:12.892Z,3.50
2018-03-11T11:10:40.537Z,3.37
2018-03-11T11:13:08.990Z,3.20
2018-03-11T11:15:36.629Z,3.40
2018-03-11T11:18:05.096Z,3.47
2018-03-11T11:20:32.731Z,3.07
2018-03-11T11:23:01.125Z,3.07
2018-03-11T11:28:46.400Z,3.40
2018-03-11T11:31:14.865Z,3.10
2018-03-11T11:33:42.495Z,3.40
2018-03-11T11:36:10.132Z,3.80
2018-03-11T11:38:37.783Z,3.37
2018-03-11T11:41:05.467Z,3.10
2018-03-11T11:43:33.126Z,3.20
2018-03-11T11:46:00.743Z,3.30
2018-03-11T11:48:28.412Z,3.47
2018-03-11T11:50:57.339Z,3.17
2018-03-11T11:53:26.231Z,3.27
2018-03-11T11:55:53.891Z,3.10
2018-03-11T11:58:21.538Z,3.20
2018-03-11T12:00:50.032Z,3.40
2018-03-11T12:03:17.660Z,3.20
2018-03-11T12:05:45.331Z,3.53
2018-03-11T12:08:13.763Z,3.63
2018-03-11T12:10:41.439Z,3.70
2018-03-11T12:13:09.078Z,3.07
2018-03-11T12:15:36.744Z,3.10
2018-03-11T12:18:04.384Z,2.93
2018-03-11T12:20:32.035Z,2.77
2018-03-11T12:23:00.911Z,2.47
2018-03-11T12:25:28.642Z,2.80
2018-03-11T12:27:56.360Z,3.00
2018-03-11T12:30:24.007Z,3.20
2018-03-11T12:32:51.642Z,3.00
2018-03-11T12:35:19.251Z,3.20
2018-03-11T12:37:47.655Z,2.80
2018-03-11T12:40:16.034Z,3.20
2018-03-11T12:42:43.681Z,2.80
2018-03-11T12:45:11.383Z,2.90
2018-03-11T12:47:39.040Z,3.13
2018-03-11T12:50:07.464Z,2.80
2018-03-11T12:52:35.123Z,2.93
2018-03-11T12:55:03.580Z,2.70
2018-03-11T12:57:31.228Z,3.07
2018-03-11T12:59:58.896Z,3.10
2018-03-11T13:11:24.247Z,2.40
2018-03-11T13:13:51.868Z,2.53
2018-03-11T13:16:19.530Z,2.43
2018-03-11T13:18:47.154Z,2.53
2018-03-11T13:21:15.591Z,2.57
2018-03-11T13:23:43.263Z,2.50
2018-03-11T13:26:10.921Z,2.53
2018-03-11T13:28:45.563Z,2.63
2018-03-11T13:31:13.219Z,2.30
2018-03-11T13:33:52.815Z,2.60
2018-03-11T13:36:20.460Z,2.50
2018-03-11T13:39:00.071Z,2.33
2018-03-11T13:41:27.717Z,2.70
2018-03-11T13:43:56.194Z,2.30
2018-03-11T13:46:36.578Z,2.27
2018-03-11T13:49:04.304Z,2.20
2018-03-11T13:51:43.607Z,1.97
2018-03-11T13:54:11.332Z,2.20
2018-03-11T13:56:39.646Z,2.63
2018-03-11T13:59:07.401Z,2.40
2018-03-11T14:01:35.799Z,2.17
2018-03-11T14:04:04.252Z,2.43
2018-03-11T14:06:32.984Z,2.20
2018-03-11T14:09:00.664Z,2.30
2018-03-11T14:11:28.305Z,2.20
2018-03-11T14:13:56.826Z,2.27
2018-03-11T14:16:24.510Z,2.00
2018-03-11T14:18:52.227Z,1.87
2018-03-11T14:21:19.906Z,2.20
2018-03-11T14:23:47.546Z,1.80
2018-03-11T14:26:15.259Z,2.10
2018-03-11T14:28:42.921Z,1.80
2018-03-11T14:31:10.587Z,1.80
2018-03-11T14:33:38.253Z,1.80
2018-03-11T14:36:05.883Z,1.90
2018-03-11T14:38:34.552Z,2.00
2018-03-11T14:41:02.179Z,1.67
2018-03-11T14:43:29.844Z,1.70
2018-03-11T14:45:57.504Z,1.90
2018-03-11T14:48:25.201Z,1.63
2018-03-11T14:50:52.878Z,1.70
2018-03-11T14:53:20.556Z,1.67
2018-03-11T14:55:48.971Z,2.07
2018-03-11T14:58:16.675Z,1.93
2018-03-11T15:00:44.347Z,1.80
2018-03-11T15:03:11.979Z,1.83
2018-03-11T15:05:40.204Z,1.60
2018-03-11T15:08:08.639Z,2.00
2018-03-11T15:10:37.040Z,2.00
2018-03-11T15:13:05.447Z,1.90
2018-03-11T15:15:33.884Z,1.83
2018-03-11T15:18:01.544Z,2.10
2018-03-11T15:20:29.207Z,2.10
2018-03-11T15:22:56.853Z,2.00
2018-03-11T15:25:24.539Z,1.80
2018-03-11T15:27:52.176Z,1.70
2018-03-11T15:30:20.607Z,1.83
2018-03-11T15:32:48.255Z,1.70
2018-03-11T15:35:15.919Z,1.67
2018-03-11T15:37:43.590Z,1.70
2018-03-11T15:40:11.310Z,1.87
2018-03-11T15:42:39.747Z,1.60
2018-03-11T15:45:07.435Z,1.70
2018-03-11T15:47:35.141Z,1.90
2018-03-11T15:50:03.600Z,1.53
2018-03-11T15:52:31.295Z,1.80
2018-03-11T15:54:59.368Z,1.83
2018-03-11T15:57:27.041Z,2.00
2018-03-11T15:59:54.721Z,1.67
2018-03-11T16:02:23.119Z,1.93
2018-03-11T16:04:50.785Z,1.80
2018-03-11T16:07:18.407Z,1.80
2018-03-11T16:09:46.852Z,1.87
2018-03-11T16:12:14.850Z,2.00
2018-03-11T16:14:42.638Z,1.70
2018-03-11T16:17:11.538Z,1.80
2018-03-11T16:19:39.519Z,1.93
2018-03-11T16:22:07.908Z,1.93
2018-03-11T16:24:39.724Z,1.63
2018-03-11T16:27:04.315Z,1.80
2018-03-11T16:29:31.988Z,1.90
2018-03-11T16:31:59.681Z,1.97
2018-03-11T16:34:27.330Z,1.87
2018-03-11T16:36:55.790Z,2.20
2018-03-11T16:39:23.493Z,2.30
2018-03-11T16:41:51.329Z,2.37
2018-03-11T16:44:18.961Z,2.70
2018-03-11T16:46:47.354Z,2.80
2018-03-11T16:49:15.099Z,2.57
2018-03-11T16:51:43.490Z,2.97
2018-03-11T16:54:11.532Z,2.40
2018-03-11T16:56:39.200Z,2.50
2018-03-11T16:59:06.846Z,2.70
2018-03-11T17:01:34.970Z,2.27
2018-03-11T17:04:03.541Z,3.13
2018-03-11T17:09:31.906Z,3.70
2018-03-11T17:11:59.544Z,3.13
2018-03-11T17:14:27.956Z,3.07
2018-03-11T17:16:56.396Z,2.97
2018-03-11T17:19:25.137Z,3.17
2018-03-11T17:21:52.845Z,3.00
2018-03-11T17:24:20.647Z,3.03
2018-03-11T17:26:48.285Z,2.73
2018-03-11T17:29:16.020Z,2.90
2018-03-11T17:31:43.647Z,2.20
2018-03-11T17:34:33.356Z,2.60
2018-03-11T17:37:01.112Z,2.40
2018-03-11T17:39:28.823Z,2.33
2018-03-11T17:41:56.451Z,2.50
2018-03-11T17:44:24.844Z,2.90
2018-03-11T17:46:53.268Z,2.63
2018-03-11T17:49:20.903Z,2.47
2018-03-11T17:51:48.757Z,2.10
2018-03-11T17:54:16.469Z,2.37
2018-03-11T17:56:44.945Z,2.00
2018-03-11T17:59:12.591Z,2.30
2018-03-11T18:01:40.306Z,2.17
2018-03-11T18:04:08.736Z,2.00
2018-03-11T18:06:36.372Z,2.03
2018-03-11T18:09:04.443Z,1.83
2018-03-11T18:11:32.119Z,2.20
2018-03-11T18:13:59.987Z,2.07
2018-03-11T18:16:28.443Z,1.90
2018-03-11T18:18:56.164Z,2.20
2018-03-11T18:21:26.114Z,2.10
2018-03-11T18:32:46.597Z,2.40
2018-03-11T18:38:24.796Z,2.60
2018-03-11T18:40:52.680Z,2.67
2018-03-11T18:43:20.600Z,2.43
2018-03-11T18:45:48.878Z,2.40
2018-03-11T18:51:09.682Z,3.70
2018-03-11T18:53:37.345Z,3.40
2018-03-11T18:56:04.999Z,3.00
2018-03-11T18:58:32.663Z,2.80
2018-03-11T19:01:00.409Z,3.20
2018-03-11T19:03:28.080Z,2.77
2018-03-11T19:05:55.743Z,2.90
2018-03-11T19:08:23.408Z,2.60
2018-03-11T19:13:48.436Z,2.63
2018-03-11T19:16:33.868Z,2.90
2018-03-11T19:19:01.496Z,2.73
2018-03-11T19:21:50.867Z,2.40
2018-03-11T19:24:18.519Z,2.70
2018-03-11T19:26:46.942Z,3.83
2018-03-11T19:29:15.049Z,3.10
2018-03-11T19:31:42.712Z,4.00
2018-03-11T19:34:11.118Z,8.40
2018-03-11T19:36:38.794Z,9.10
2018-03-11T19:39:07.459Z,6.17
2018-03-11T19:41:35.154Z,6.90
2018-03-11T19:44:02.859Z,6.57
2018-03-11T19:46:30.508Z,5.63
2018-03-11T19:48:58.220Z,4.67
2018-03-11T19:51:25.865Z,4.33
2018-03-11T19:53:53.551Z,4.43
2018-03-11T19:56:21.921Z,4.50
2018-03-11T19:58:49.792Z,5.27
2018-03-11T20:01:17.531Z,6.57
2018-03-11T20:03:45.232Z,6.23
2018-03-11T20:06:34.867Z,6.23
2018-03-11T20:09:03.371Z,6.43
2018-03-11T20:11:31.989Z,5.97
2018-03-11T20:13:59.647Z,6.27
2018-03-11T20:16:27.331Z,5.20
2018-03-11T20:18:54.980Z,5.27
2018-03-11T20:21:22.636Z,5.70
2018-03-11T20:23:50.300Z,5.67
2018-03-11T20:26:17.948Z,5.37
2018-03-11T20:28:45.580Z,6.23
2018-03-11T20:31:14.050Z,6.80
2018-03-11T20:33:42.471Z,7.00
2018-03-11T20:36:10.225Z,6.20
2018-03-11T20:38:37.954Z,6.20
2018-03-11T20:41:05.608Z,7.20
2018-03-11T20:43:33.308Z,8.53
2018-03-11T20:46:00.956Z,10.43
2018-03-11T20:48:30.122Z,13.37
2018-03-11T20:50:58.408Z,15.60
2018-03-11T20:53:26.815Z,13.63
2018-03-11T20:55:55.319Z,11.70
2018-03-11T20:58:23.932Z,10.40
2018-03-11T21:00:52.348Z,6.70
2018-03-11T21:03:20.803Z,7.87
2018-03-11T21:05:48.465Z,6.13
2018-03-11T21:08:16.076Z,15.77
2018-03-11T21:10:43.762Z,9.30
2018-03-11T21:13:11.440Z,6.53
2018-03-11T21:15:39.074Z,5.57
2018-03-11T21:18:06.789Z,5.80
2018-03-11T21:20:35.164Z,4.97
2018-03-11T21:23:04.713Z,5.27
2018-03-11T21:25:32.372Z,5.30
2018-03-11T21:28:00.024Z,5.20
2018-03-11T21:30:30.634Z,5.20
2018-03-11T21:32:58.330Z,5.07
2018-03-11T21:35:26.127Z,5.97
2018-03-11T21:37:53.778Z,5.03
2018-03-11T21:40:22.203Z,5.97
2018-03-11T21:42:49.855Z,4.97
2018-03-11T21:45:17.555Z,5.87
2018-03-11T21:47:45.155Z,6.27
2018-03-11T21:50:12.782Z,5.97
2018-03-11T21:52:40.552Z,5.93
2018-03-11T21:55:12.090Z,5.70
2018-03-11T21:57:40.681Z,5.87
2018-03-11T22:00:09.126Z,6.10
2018-03-11T22:02:37.599Z,6.50
2018-03-11T22:05:06.012Z,6.53
2018-03-11T22:07:33.639Z,6.47
2018-03-11T22:10:01.252Z,6.20
2018-03-11T22:12:28.894Z,6.23
2018-03-11T22:14:56.511Z,6.40
2018-03-11T22:17:24.163Z,6.10
2018-03-11T22:19:51.807Z,7.00
2018-03-11T22:22:19.755Z,6.90
2018-03-11T22:24:47.379Z,6.57
2018-03-11T22:27:15.029Z,6.60
2018-03-11T22:29:42.785Z,7.20
2018-03-11T22:32:11.217Z,7.27
2018-03-11T22:34:38.930Z,7.00
2018-03-11T22:37:06.538Z,7.20
2018-03-11T22:39:34.208Z,6.27
2018-03-11T22:42:01.861Z,6.70
2018-03-11T22:44:29.520Z,6.80
2018-03-11T22:46:57.927Z,6.30
2018-03-11T22:49:26.344Z,6.43
2018-03-11T22:51:54.008Z,6.53
2018-03-11T22:54:22.429Z,6.27
2018-03-11T22:56:50.116Z,5.47
2018-03-11T22:59:18.544Z,5.80
2018-03-11T23:01:46.186Z,5.60
2018-03-11T23:04:13.864Z,5.03
2018-03-11T23:06:41.502Z,5.83
2018-03-11T23:09:09.179Z,5.70
2018-03-11T23:11:36.816Z,5.07
2018-03-11T23:14:04.447Z,5.10
2018-03-11T23:16:32.080Z,5.20
2018-03-11T23:19:11.528Z,5.50
2018-03-11T23:21:39.163Z,5.27
2018-03-11T23:32:50.768Z,5.07
2018-03-11T23:35:19.181Z,4.87
2018-03-11T23:37:46.799Z,5.13
2018-03-11T23:40:14.466Z,5.07
2018-03-11T23:42:42.062Z,5.67
2018-03-11T23:45:09.739Z,4.90
2018-03-11T23:47:37.344Z,5.10
2018-03-11T23:50:05.053Z,5.40
2018-03-11T23:52:32.742Z,5.20
2018-03-11T23:55:00.424Z,5.63
2018-03-11T23:57:28.107Z,5.13
2018-03-11T23:59:55.739Z,5.23
